sensor_id;sensor_type;location;lat;lon;timestamp;temperature;humidity
5009;DHT22;2523;51.058;6.922;2024-03-23T00:53:47;8.80;99.90
5009;DHT22;2523;51.058;6.922;2024-03-23T00:56:13;8.80;99.90
5009;DHT22;2523;51.058;6.922;2024-03-23T00:58:38;8.50;99.90
5009;DHT22;2523;51.058;6.922;2024-03-23T01:01:04;8.40;99.90
5009;DHT22;2523;51.058;6.922;2024-03-23T01:03:30;8.30;99.90
5009;DHT22;2523;51.058;6.922;2024-03-23T01:06:02;8.20;99.90
5009;DHT22;2523;51.058;6.922;2024-03-23T01:08:28;8.10;99.90
5009;DHT22;2523;51.058;6.922;2024-03-23T01:10:55;8.00;99.90
5009;DHT22;2523;51.058;6.922;2024-03-23T01:13:21;8.00;99.90
5009;DHT22;2523;51.058;6.922;2024-03-23T01:15:51;7.90;99.90
5009;DHT22;2523;51.058;6.922;2024-03-23T01:18:20;7.90;99.90
5009;DHT22;2523;51.058;6.922;2024-03-23T01:20:46;7.90;99.90
5009;DHT22;2523;51.058;6.922;2024-03-23T01:23:12;7.90;99.90
5009;DHT22;2523;51.058;6.922;2024-03-23T01:25:38;7.90;99.90
5009;DHT22;2523;51.058;6.922;2024-03-23T01:28:04;7.90;99.90
5009;DHT22;2523;51.058;6.922;2024-03-23T01:30:30;7.90;99.90
5009;DHT22;2523;51.058;6.922;2024-03-23T01:32:56;8.00;99.90
5009;DHT22;2523;51.058;6.922;2024-03-23T01:35:21;8.00;99.90
5009;DHT22;2523;51.058;6.922;2024-03-23T01:37:47;8.00;99.90
5009;DHT22;2523;51.058;6.922;2024-03-23T01:40:12;8.00;99.90
5009;DHT22;2523;51.058;6.922;2024-03-23T01:42:40;8.00;99.90
5009;DHT22;2523;51.058;6.922;2024-03-23T01:45:08;8.10;99.90
5009;DHT22;2523;51.058;6.922;2024-03-23T01:47:34;8.10;99.90
5009;DHT22;2523;51.058;6.922;2024-03-23T01:50:00;8.00;99.90
5009;DHT22;2523;51.058;6.922;2024-03-23T01:52:26;8.00;99.90
5009;DHT22;2523;51.058;6.922;2024-03-23T01:54:53;7.90;99.90
5009;DHT22;2523;51.058;6.922;2024-03-23T01:57:22;7.90;99.90
5009;DHT22;2523;51.058;6.922;2024-03-23T01:59:48;7.90;99.90
5009;DHT22;2523;51.058;6.922;2024-03-23T02:02:13;7.80;99.90
5009;DHT22;2523;51.058;6.922;2024-03-23T02:04:39;7.90;99.90
5009;DHT22;2523;51.058;6.922;2024-03-23T02:07:06;7.80;99.90
5009;DHT22;2523;51.058;6.922;2024-03-23T02:09:33;7.90;99.90
5009;DHT22;2523;51.058;6.922;2024-03-23T02:11:58;7.90;99.90
5009;DHT22;2523;51.058;6.922;2024-03-23T02:14:24;7.80;99.90
5009;DHT22;2523;51.058;6.922;2024-03-23T02:16:49;7.90;99.90
5009;DHT22;2523;51.058;6.922;2024-03-23T02:19:15;7.80;99.90
5009;DHT22;2523;51.058;6.922;2024-03-23T02:21:40;7.70;99.90
5009;DHT22;2523;51.058;6.922;2024-03-23T02:24:06;7.60;99.90
5009;DHT22;2523;51.058;6.922;2024-03-23T02:26:31;7.70;99.90
5009;DHT22;2523;51.058;6.922;2024-03-23T02:28:57;7.70;99.90
5009;DHT22;2523;51.058;6.922;2024-03-23T02:31:22;7.60;55.90
5009;DHT22;2523;51.058;6.922;2024-03-23T02:33:48;7.50;99.90
5009;DHT22;2523;51.058;6.922;2024-03-23T02:36:13;7.50;96.60
5009;DHT22;2523;51.058;6.922;2024-03-23T02:38:39;7.40;1.00
5009;DHT22;2523;51.058;6.922;2024-03-23T02:41:05;7.30;1.00
5009;DHT22;2523;51.058;6.922;2024-03-23T02:43:31;7.30;1.00
5009;DHT22;2523;51.058;6.922;2024-03-23T02:45:56;7.40;1.00
5009;DHT22;2523;51.058;6.922;2024-03-23T02:48:22;7.40;1.00
5009;DHT22;2523;51.058;6.922;2024-03-23T02:50:48;7.40;1.00
5009;DHT22;2523;51.058;6.922;2024-03-23T02:53:13;7.40;1.00
5009;DHT22;2523;51.058;6.922;2024-03-23T02:55:39;7.40;1.00
5009;DHT22;2523;51.058;6.922;2024-03-23T02:58:04;7.40;1.00
5009;DHT22;2523;51.058;6.922;2024-03-23T03:00:30;7.50;1.00
5009;DHT22;2523;51.058;6.922;2024-03-23T03:02:55;7.50;1.00
5009;DHT22;2523;51.058;6.922;2024-03-23T03:05:21;7.40;1.00
5009;DHT22;2523;51.058;6.922;2024-03-23T03:07:47;7.50;1.00
5009;DHT22;2523;51.058;6.922;2024-03-23T03:10:12;7.50;1.00
5009;DHT22;2523;51.058;6.922;2024-03-23T03:12:38;7.50;1.00
5009;DHT22;2523;51.058;6.922;2024-03-23T03:15:06;7.40;1.00
5009;DHT22;2523;51.058;6.922;2024-03-23T03:17:33;7.40;1.00
5009;DHT22;2523;51.058;6.922;2024-03-23T03:19:58;7.40;5.50
5009;DHT22;2523;51.058;6.922;2024-03-23T03:22:25;7.40;1.00
5009;DHT22;2523;51.058;6.922;2024-03-23T03:24:50;7.40;1.00
5009;DHT22;2523;51.058;6.922;2024-03-23T03:27:16;7.50;1.00
5009;DHT22;2523;51.058;6.922;2024-03-23T03:29:41;7.50;1.00
5009;DHT22;2523;51.058;6.922;2024-03-23T03:32:07;7.40;1.00
5009;DHT22;2523;51.058;6.922;2024-03-23T03:34:32;7.40;1.00
5009;DHT22;2523;51.058;6.922;2024-03-23T03:36:58;7.40;11.30
5009;DHT22;2523;51.058;6.922;2024-03-23T03:39:24;7.40;1.00
5009;DHT22;2523;51.058;6.922;2024-03-23T03:41:50;7.40;22.30
5009;DHT22;2523;51.058;6.922;2024-03-23T03:44:16;7.50;89.80
5009;DHT22;2523;51.058;6.922;2024-03-23T03:46:42;7.40;1.00
5009;DHT22;2523;51.058;6.922;2024-03-23T03:49:08;7.50;1.00
5009;DHT22;2523;51.058;6.922;2024-03-23T03:51:34;7.40;1.00
5009;DHT22;2523;51.058;6.922;2024-03-23T03:53:59;7.40;1.00
5009;DHT22;2523;51.058;6.922;2024-03-23T03:56:25;7.40;1.00
5009;DHT22;2523;51.058;6.922;2024-03-23T03:58:51;7.40;1.00
5009;DHT22;2523;51.058;6.922;2024-03-23T04:01:16;7.40;1.00
5009;DHT22;2523;51.058;6.922;2024-03-23T04:03:43;7.30;1.00
5009;DHT22;2523;51.058;6.922;2024-03-23T04:06:09;7.30;1.00
5009;DHT22;2523;51.058;6.922;2024-03-23T04:08:35;7.30;1.00
5009;DHT22;2523;51.058;6.922;2024-03-23T04:11:01;7.30;1.00
5009;DHT22;2523;51.058;6.922;2024-03-23T04:13:27;7.30;1.00
5009;DHT22;2523;51.058;6.922;2024-03-23T04:15:56;7.40;1.00
5009;DHT22;2523;51.058;6.922;2024-03-23T04:18:22;7.30;1.00
5009;DHT22;2523;51.058;6.922;2024-03-23T04:20:51;7.30;1.00
5009;DHT22;2523;51.058;6.922;2024-03-23T04:23:17;7.30;1.00
5009;DHT22;2523;51.058;6.922;2024-03-23T04:25:43;7.30;1.00
5009;DHT22;2523;51.058;6.922;2024-03-23T04:28:09;7.20;1.00
5009;DHT22;2523;51.058;6.922;2024-03-23T04:30:34;7.30;1.00
5009;DHT22;2523;51.058;6.922;2024-03-23T04:33:00;7.30;73.00
5009;DHT22;2523;51.058;6.922;2024-03-23T04:35:26;7.30;92.80
5009;DHT22;2523;51.058;6.922;2024-03-23T04:37:53;7.20;99.90
5009;DHT22;2523;51.058;6.922;2024-03-23T04:40:18;7.30;86.90
5009;DHT22;2523;51.058;6.922;2024-03-23T04:42:45;7.30;93.40
5009;DHT22;2523;51.058;6.922;2024-03-23T04:45:11;7.20;52.10
5009;DHT22;2523;51.058;6.922;2024-03-23T04:47:37;7.20;1.00
5009;DHT22;2523;51.058;6.922;2024-03-23T04:50:04;7.20;5.80
5009;DHT22;2523;51.058;6.922;2024-03-23T04:52:30;7.20;1.00
5009;DHT22;2523;51.058;6.922;2024-03-23T04:54:56;7.10;93.20
5009;DHT22;2523;51.058;6.922;2024-03-23T04:57:22;7.10;99.90
5009;DHT22;2523;51.058;6.922;2024-03-23T04:59:47;7.10;99.90
5009;DHT22;2523;51.058;6.922;2024-03-23T05:02:13;7.10;99.90
5009;DHT22;2523;51.058;6.922;2024-03-23T05:04:39;7.10;99.90
5009;DHT22;2523;51.058;6.922;2024-03-23T05:07:06;7.20;99.90
5009;DHT22;2523;51.058;6.922;2024-03-23T05:09:32;7.20;99.90
5009;DHT22;2523;51.058;6.922;2024-03-23T05:11:59;7.20;99.90
5009;DHT22;2523;51.058;6.922;2024-03-23T05:14:25;7.20;99.90
5009;DHT22;2523;51.058;6.922;2024-03-23T05:16:52;7.20;99.90
5009;DHT22;2523;51.058;6.922;2024-03-23T05:19:17;7.10;99.90
5009;DHT22;2523;51.058;6.922;2024-03-23T05:21:43;7.10;99.90
5009;DHT22;2523;51.058;6.922;2024-03-23T05:24:08;7.10;99.90
5009;DHT22;2523;51.058;6.922;2024-03-23T05:26:34;7.10;99.90
5009;DHT22;2523;51.058;6.922;2024-03-23T05:29:01;7.00;99.90
5009;DHT22;2523;51.058;6.922;2024-03-23T05:31:28;7.10;99.90
5009;DHT22;2523;51.058;6.922;2024-03-23T05:33:54;7.10;99.90
5009;DHT22;2523;51.058;6.922;2024-03-23T05:36:20;7.10;99.90
5009;DHT22;2523;51.058;6.922;2024-03-23T05:38:45;7.10;99.90
5009;DHT22;2523;51.058;6.922;2024-03-23T05:41:12;7.10;99.90
5009;DHT22;2523;51.058;6.922;2024-03-23T05:43:37;7.10;99.90
5009;DHT22;2523;51.058;6.922;2024-03-23T05:46:03;7.10;99.90
5009;DHT22;2523;51.058;6.922;2024-03-23T05:48:31;7.10;99.90
5009;DHT22;2523;51.058;6.922;2024-03-23T05:50:56;7.00;99.90
5009;DHT22;2523;51.058;6.922;2024-03-23T05:53:22;7.00;99.90
5009;DHT22;2523;51.058;6.922;2024-03-23T05:55:49;7.10;99.90
5009;DHT22;2523;51.058;6.922;2024-03-23T05:58:15;7.00;99.90
5009;DHT22;2523;51.058;6.922;2024-03-23T06:00:41;7.00;99.90
5009;DHT22;2523;51.058;6.922;2024-03-23T06:03:08;7.10;99.90
5009;DHT22;2523;51.058;6.922;2024-03-23T06:05:33;7.10;99.90
5009;DHT22;2523;51.058;6.922;2024-03-23T06:07:59;7.00;99.90
5009;DHT22;2523;51.058;6.922;2024-03-23T06:10:25;7.00;99.90
5009;DHT22;2523;51.058;6.922;2024-03-23T06:12:50;7.00;99.90
5009;DHT22;2523;51.058;6.922;2024-03-23T06:15:18;7.10;99.90
5009;DHT22;2523;51.058;6.922;2024-03-23T06:17:44;7.00;99.90
5009;DHT22;2523;51.058;6.922;2024-03-23T06:20:09;7.00;99.90
5009;DHT22;2523;51.058;6.922;2024-03-23T06:22:35;7.10;99.90
5009;DHT22;2523;51.058;6.922;2024-03-23T06:25:01;7.10;99.90
5009;DHT22;2523;51.058;6.922;2024-03-23T06:27:27;7.10;99.90
5009;DHT22;2523;51.058;6.922;2024-03-23T06:29:52;7.10;99.90
5009;DHT22;2523;51.058;6.922;2024-03-23T06:32:18;7.10;99.90
5009;DHT22;2523;51.058;6.922;2024-03-23T06:34:44;7.10;99.90
5009;DHT22;2523;51.058;6.922;2024-03-23T06:37:10;7.00;99.90
5009;DHT22;2523;51.058;6.922;2024-03-23T06:39:36;6.90;99.90
5009;DHT22;2523;51.058;6.922;2024-03-23T06:42:02;6.90;99.90
5009;DHT22;2523;51.058;6.922;2024-03-23T06:44:28;6.90;99.90
5009;DHT22;2523;51.058;6.922;2024-03-23T06:46:54;6.80;99.90
5009;DHT22;2523;51.058;6.922;2024-03-23T06:49:20;6.80;99.90
5009;DHT22;2523;51.058;6.922;2024-03-23T06:51:45;6.80;99.90
5009;DHT22;2523;51.058;6.922;2024-03-23T06:54:11;6.90;99.90
5009;DHT22;2523;51.058;6.922;2024-03-23T06:56:37;6.90;99.90
5009;DHT22;2523;51.058;6.922;2024-03-23T06:59:02;6.90;99.90
5009;DHT22;2523;51.058;6.922;2024-03-23T07:01:28;6.90;99.90
5009;DHT22;2523;51.058;6.922;2024-03-23T07:03:56;7.00;99.90
5009;DHT22;2523;51.058;6.922;2024-03-23T07:06:22;7.00;99.90
5009;DHT22;2523;51.058;6.922;2024-03-23T07:08:47;7.10;99.90
5009;DHT22;2523;51.058;6.922;2024-03-23T07:11:19;7.10;99.90
5009;DHT22;2523;51.058;6.922;2024-03-23T07:13:45;7.20;99.90
5009;DHT22;2523;51.058;6.922;2024-03-23T07:16:10;7.20;99.90
5009;DHT22;2523;51.058;6.922;2024-03-23T07:18:36;7.30;99.90
5009;DHT22;2523;51.058;6.922;2024-03-23T07:21:02;7.40;99.90
5009;DHT22;2523;51.058;6.922;2024-03-23T07:23:27;7.40;99.90
5009;DHT22;2523;51.058;6.922;2024-03-23T07:26:05;7.40;99.90
5009;DHT22;2523;51.058;6.922;2024-03-23T07:28:31;7.40;99.90
5009;DHT22;2523;51.058;6.922;2024-03-23T07:31:05;7.40;99.90
5009;DHT22;2523;51.058;6.922;2024-03-23T07:33:31;7.50;99.90
5009;DHT22;2523;51.058;6.922;2024-03-23T07:35:57;7.60;99.90
5009;DHT22;2523;51.058;6.922;2024-03-23T07:38:24;7.70;99.90
5009;DHT22;2523;51.058;6.922;2024-03-23T07:40:51;7.80;99.90
5009;DHT22;2523;51.058;6.922;2024-03-23T07:43:21;7.80;99.90
5009;DHT22;2523;51.058;6.922;2024-03-23T07:45:53;7.90;99.90
5009;DHT22;2523;51.058;6.922;2024-03-23T07:48:18;8.00;99.90
5009;DHT22;2523;51.058;6.922;2024-03-23T07:50:44;8.10;99.90
5009;DHT22;2523;51.058;6.922;2024-03-23T07:53:10;8.10;99.90
5009;DHT22;2523;51.058;6.922;2024-03-23T07:55:35;8.10;99.90
5009;DHT22;2523;51.058;6.922;2024-03-23T07:58:01;8.10;99.90
5009;DHT22;2523;51.058;6.922;2024-03-23T08:00:26;8.30;99.90
5009;DHT22;2523;51.058;6.922;2024-03-23T08:02:52;8.40;99.90
5009;DHT22;2523;51.058;6.922;2024-03-23T08:05:17;8.50;99.90
5009;DHT22;2523;51.058;6.922;2024-03-23T08:07:42;8.50;99.90
5009;DHT22;2523;51.058;6.922;2024-03-23T08:10:08;8.60;99.90
5009;DHT22;2523;51.058;6.922;2024-03-23T08:12:34;8.60;99.90
5009;DHT22;2523;51.058;6.922;2024-03-23T08:14:59;8.70;65.70
5009;DHT22;2523;51.058;6.922;2024-03-23T08:17:25;8.70;1.00
5009;DHT22;2523;51.058;6.922;2024-03-23T08:19:50;8.80;1.00
5009;DHT22;2523;51.058;6.922;2024-03-23T08:22:17;8.90;1.00
5009;DHT22;2523;51.058;6.922;2024-03-23T08:24:43;8.90;1.00
5009;DHT22;2523;51.058;6.922;2024-03-23T08:27:08;8.90;99.90
5009;DHT22;2523;51.058;6.922;2024-03-23T08:29:34;9.10;45.20
5009;DHT22;2523;51.058;6.922;2024-03-23T08:31:59;9.20;99.90
5009;DHT22;2523;51.058;6.922;2024-03-23T08:34:26;9.30;99.90
5009;DHT22;2523;51.058;6.922;2024-03-23T08:36:51;9.30;1.00
5009;DHT22;2523;51.058;6.922;2024-03-23T08:39:17;9.40;1.00
5009;DHT22;2523;51.058;6.922;2024-03-23T08:41:42;9.60;1.00
5009;DHT22;2523;51.058;6.922;2024-03-23T08:44:12;9.50;1.00
5009;DHT22;2523;51.058;6.922;2024-03-23T08:46:38;9.40;1.00
5009;DHT22;2523;51.058;6.922;2024-03-23T08:49:03;9.30;1.00
5009;DHT22;2523;51.058;6.922;2024-03-23T08:51:29;9.20;99.90
5009;DHT22;2523;51.058;6.922;2024-03-23T08:53:54;9.10;24.20
5009;DHT22;2523;51.058;6.922;2024-03-23T08:56:20;9.00;99.90
5009;DHT22;2523;51.058;6.922;2024-03-23T08:58:46;9.00;1.00
5009;DHT22;2523;51.058;6.922;2024-03-23T09:01:13;9.20;1.00
5009;DHT22;2523;51.058;6.922;2024-03-23T09:03:38;9.20;1.00
5009;DHT22;2523;51.058;6.922;2024-03-23T09:06:14;9.20;1.00
5009;DHT22;2523;51.058;6.922;2024-03-23T09:08:40;9.20;99.90
5009;DHT22;2523;51.058;6.922;2024-03-23T09:11:08;9.30;99.90
5009;DHT22;2523;51.058;6.922;2024-03-23T09:13:35;9.30;1.00
5009;DHT22;2523;51.058;6.922;2024-03-23T09:16:01;9.50;1.00
5009;DHT22;2523;51.058;6.922;2024-03-23T09:18:27;9.60;1.00
5009;DHT22;2523;51.058;6.922;2024-03-23T09:20:52;9.50;99.90
5009;DHT22;2523;51.058;6.922;2024-03-23T09:23:21;9.50;1.00
5009;DHT22;2523;51.058;6.922;2024-03-23T09:25:46;9.60;99.90
5009;DHT22;2523;51.058;6.922;2024-03-23T09:28:12;9.80;99.90
5009;DHT22;2523;51.058;6.922;2024-03-23T09:30:37;10.00;99.90
5009;DHT22;2523;51.058;6.922;2024-03-23T09:33:12;10.40;99.90
5009;DHT22;2523;51.058;6.922;2024-03-23T09:35:39;10.70;99.90
5009;DHT22;2523;51.058;6.922;2024-03-23T09:38:05;10.70;99.90
5009;DHT22;2523;51.058;6.922;2024-03-23T09:40:31;10.50;99.90
5009;DHT22;2523;51.058;6.922;2024-03-23T09:42:57;10.30;1.00
5009;DHT22;2523;51.058;6.922;2024-03-23T09:45:27;10.20;1.00
5009;DHT22;2523;51.058;6.922;2024-03-23T09:47:53;10.00;99.90
5009;DHT22;2523;51.058;6.922;2024-03-23T09:50:19;9.80;1.00
5009;DHT22;2523;51.058;6.922;2024-03-23T09:52:49;9.70;99.90
5009;DHT22;2523;51.058;6.922;2024-03-23T09:55:14;9.60;1.00
5009;DHT22;2523;51.058;6.922;2024-03-23T09:57:41;9.90;99.90
5009;DHT22;2523;51.058;6.922;2024-03-23T10:00:07;10.00;1.00
5009;DHT22;2523;51.058;6.922;2024-03-23T10:02:34;10.00;1.00
5009;DHT22;2523;51.058;6.922;2024-03-23T10:05:00;10.00;91.60
5009;DHT22;2523;51.058;6.922;2024-03-23T10:07:26;9.80;99.90
5009;DHT22;2523;51.058;6.922;2024-03-23T10:09:54;9.70;1.00
5009;DHT22;2523;51.058;6.922;2024-03-23T10:12:19;10.00;99.90
5009;DHT22;2523;51.058;6.922;2024-03-23T10:14:45;10.30;1.00
5009;DHT22;2523;51.058;6.922;2024-03-23T10:17:18;10.60;1.00
5009;DHT22;2523;51.058;6.922;2024-03-23T10:22:14;10.30;1.00
5009;DHT22;2523;51.058;6.922;2024-03-23T10:24:40;10.30;1.00
5009;DHT22;2523;51.058;6.922;2024-03-23T10:27:06;10.60;1.00
5009;DHT22;2523;51.058;6.922;2024-03-23T10:29:31;10.50;1.00
5009;DHT22;2523;51.058;6.922;2024-03-23T10:32:08;10.30;1.00
5009;DHT22;2523;51.058;6.922;2024-03-23T10:34:34;10.10;1.00
5009;DHT22;2523;51.058;6.922;2024-03-23T10:37:02;10.00;99.90
5009;DHT22;2523;51.058;6.922;2024-03-23T10:39:29;9.70;1.00
5009;DHT22;2523;51.058;6.922;2024-03-23T10:41:56;9.40;1.00
5009;DHT22;2523;51.058;6.922;2024-03-23T10:44:22;9.30;1.00
5009;DHT22;2523;51.058;6.922;2024-03-23T10:46:52;9.20;22.00
5009;DHT22;2523;51.058;6.922;2024-03-23T10:49:25;9.10;1.00
5009;DHT22;2523;51.058;6.922;2024-03-23T10:51:51;9.00;1.00
5009;DHT22;2523;51.058;6.922;2024-03-23T10:54:17;8.90;99.90
5009;DHT22;2523;51.058;6.922;2024-03-23T10:56:43;8.90;1.00
5009;DHT22;2523;51.058;6.922;2024-03-23T10:59:10;8.80;1.00
5009;DHT22;2523;51.058;6.922;2024-03-23T11:01:54;8.70;99.90
5009;DHT22;2523;51.058;6.922;2024-03-23T11:04:49;8.70;99.90
5009;DHT22;2523;51.058;6.922;2024-03-23T11:09:50;8.60;1.00
5009;DHT22;2523;51.058;6.922;2024-03-23T11:17:23;8.10;1.00
5009;DHT22;2523;51.058;6.922;2024-03-23T11:20:05;8.00;1.00
5009;DHT22;2523;51.058;6.922;2024-03-23T11:25:15;7.90;99.90
5009;DHT22;2523;51.058;6.922;2024-03-23T11:27:42;7.70;1.00
5009;DHT22;2523;51.058;6.922;2024-03-23T11:30:27;7.80;33.50
5009;DHT22;2523;51.058;6.922;2024-03-23T11:32:55;7.90;99.90
5009;DHT22;2523;51.058;6.922;2024-03-23T11:35:28;8.20;99.90
5009;DHT22;2523;51.058;6.922;2024-03-23T11:38:10;8.90;1.00
5009;DHT22;2523;51.058;6.922;2024-03-23T11:40:46;10.00;84.70
5009;DHT22;2523;51.058;6.922;2024-03-23T11:43:19;10.80;99.90
5009;DHT22;2523;51.058;6.922;2024-03-23T11:45:50;11.70;99.90
5009;DHT22;2523;51.058;6.922;2024-03-23T11:48:19;12.50;44.20
5009;DHT22;2523;51.058;6.922;2024-03-23T11:50:47;12.90;38.30
5009;DHT22;2523;51.058;6.922;2024-03-23T11:53:18;13.00;23.30
5009;DHT22;2523;51.058;6.922;2024-03-23T11:55:54;12.50;17.00
5009;DHT22;2523;51.058;6.922;2024-03-23T11:58:22;12.40;24.10
5009;DHT22;2523;51.058;6.922;2024-03-23T12:00:58;12.70;49.50
5009;DHT22;2523;51.058;6.922;2024-03-23T12:03:24;13.40;38.00
5009;DHT22;2523;51.058;6.922;2024-03-23T12:05:59;13.30;24.00
5009;DHT22;2523;51.058;6.922;2024-03-23T12:08:32;13.60;28.80
5009;DHT22;2523;51.058;6.922;2024-03-23T12:11:12;14.00;36.60
5009;DHT22;2523;51.058;6.922;2024-03-23T12:13:39;14.40;31.90
5009;DHT22;2523;51.058;6.922;2024-03-23T12:18:41;12.40;25.60
5009;DHT22;2523;51.058;6.922;2024-03-23T12:21:07;12.40;59.20
5009;DHT22;2523;51.058;6.922;2024-03-23T12:23:34;12.50;72.00
5009;DHT22;2523;51.058;6.922;2024-03-23T12:26:00;12.80;44.30
5009;DHT22;2523;51.058;6.922;2024-03-23T12:28:25;12.80;23.90
5009;DHT22;2523;51.058;6.922;2024-03-23T12:30:51;12.00;29.50
5009;DHT22;2523;51.058;6.922;2024-03-23T12:33:20;11.10;99.90
5009;DHT22;2523;51.058;6.922;2024-03-23T12:35:47;10.00;1.00
5009;DHT22;2523;51.058;6.922;2024-03-23T12:38:12;9.50;1.00
5009;DHT22;2523;51.058;6.922;2024-03-23T12:40:38;9.00;99.90
5009;DHT22;2523;51.058;6.922;2024-03-23T12:43:04;8.30;99.90
5009;DHT22;2523;51.058;6.922;2024-03-23T12:45:29;7.80;1.00
5009;DHT22;2523;51.058;6.922;2024-03-23T12:47:55;7.60;99.90
5009;DHT22;2523;51.058;6.922;2024-03-23T12:50:21;7.50;1.00
5009;DHT22;2523;51.058;6.922;2024-03-23T12:52:46;7.40;1.00
5009;DHT22;2523;51.058;6.922;2024-03-23T12:55:12;7.60;99.90
5009;DHT22;2523;51.058;6.922;2024-03-23T12:57:38;8.20;1.00
5009;DHT22;2523;51.058;6.922;2024-03-23T13:00:04;9.80;99.90
5009;DHT22;2523;51.058;6.922;2024-03-23T13:02:30;11.00;99.90
5009;DHT22;2523;51.058;6.922;2024-03-23T13:04:55;12.50;1.00
5009;DHT22;2523;51.058;6.922;2024-03-23T13:07:22;13.60;99.90
5009;DHT22;2523;51.058;6.922;2024-03-23T13:09:52;13.20;45.30
5009;DHT22;2523;51.058;6.922;2024-03-23T13:12:19;13.10;99.90
5009;DHT22;2523;51.058;6.922;2024-03-23T13:14:45;12.90;99.90
5009;DHT22;2523;51.058;6.922;2024-03-23T13:17:11;13.40;99.90
5009;DHT22;2523;51.058;6.922;2024-03-23T13:19:37;13.80;38.10
5009;DHT22;2523;51.058;6.922;2024-03-23T13:22:03;14.00;44.30
5009;DHT22;2523;51.058;6.922;2024-03-23T13:24:29;14.40;51.60
5009;DHT22;2523;51.058;6.922;2024-03-23T13:26:55;15.00;40.00
5009;DHT22;2523;51.058;6.922;2024-03-23T13:29:22;15.30;38.00
5009;DHT22;2523;51.058;6.922;2024-03-23T13:31:49;15.40;35.30
5009;DHT22;2523;51.058;6.922;2024-03-23T13:34:14;15.60;37.20
5009;DHT22;2523;51.058;6.922;2024-03-23T13:36:41;15.20;29.70
5009;DHT22;2523;51.058;6.922;2024-03-23T13:39:07;14.10;17.50
5009;DHT22;2523;51.058;6.922;2024-03-23T13:41:40;13.60;11.90
5009;DHT22;2523;51.058;6.922;2024-03-23T13:44:06;12.90;17.20
5009;DHT22;2523;51.058;6.922;2024-03-23T13:46:32;12.20;99.90
5009;DHT22;2523;51.058;6.922;2024-03-23T13:48:58;12.00;41.60
5009;DHT22;2523;51.058;6.922;2024-03-23T13:51:24;11.60;99.90
5009;DHT22;2523;51.058;6.922;2024-03-23T13:53:56;11.80;52.10
5009;DHT22;2523;51.058;6.922;2024-03-23T13:56:25;11.50;99.90
5009;DHT22;2523;51.058;6.922;2024-03-23T13:58:51;11.00;99.90
5009;DHT22;2523;51.058;6.922;2024-03-23T14:01:17;10.50;1.00
5009;DHT22;2523;51.058;6.922;2024-03-23T14:03:43;10.10;1.00
5009;DHT22;2523;51.058;6.922;2024-03-23T14:06:09;10.00;99.90
5009;DHT22;2523;51.058;6.922;2024-03-23T14:08:36;9.90;99.90
5009;DHT22;2523;51.058;6.922;2024-03-23T14:11:04;9.70;99.90
5009;DHT22;2523;51.058;6.922;2024-03-23T14:13:30;9.70;1.00
5009;DHT22;2523;51.058;6.922;2024-03-23T14:15:56;9.90;99.90
5009;DHT22;2523;51.058;6.922;2024-03-23T14:18:22;10.70;99.90
5009;DHT22;2523;51.058;6.922;2024-03-23T14:20:51;11.70;99.90
5009;DHT22;2523;51.058;6.922;2024-03-23T14:23:17;12.50;90.80
5009;DHT22;2523;51.058;6.922;2024-03-23T14:25:42;12.90;55.50
5009;DHT22;2523;51.058;6.922;2024-03-23T14:28:08;12.90;25.50
5009;DHT22;2523;51.058;6.922;2024-03-23T14:30:43;12.70;30.90
5009;DHT22;2523;51.058;6.922;2024-03-23T14:33:09;12.50;27.40
5009;DHT22;2523;51.058;6.922;2024-03-23T14:35:35;12.00;10.30
5009;DHT22;2523;51.058;6.922;2024-03-23T14:38:01;11.50;16.20
5009;DHT22;2523;51.058;6.922;2024-03-23T14:40:27;10.80;99.90
5009;DHT22;2523;51.058;6.922;2024-03-23T14:42:54;10.30;64.00
5009;DHT22;2523;51.058;6.922;2024-03-23T14:45:21;9.80;99.90
5009;DHT22;2523;51.058;6.922;2024-03-23T14:47:47;9.60;99.90
5009;DHT22;2523;51.058;6.922;2024-03-23T14:50:12;9.40;99.90
5009;DHT22;2523;51.058;6.922;2024-03-23T14:52:41;9.30;1.00
5009;DHT22;2523;51.058;6.922;2024-03-23T14:55:07;9.20;1.00
5009;DHT22;2523;51.058;6.922;2024-03-23T14:57:34;9.20;99.90
5009;DHT22;2523;51.058;6.922;2024-03-23T15:00:00;9.10;1.00
5009;DHT22;2523;51.058;6.922;2024-03-23T15:02:26;9.00;1.00
5009;DHT22;2523;51.058;6.922;2024-03-23T15:04:53;8.70;1.00
5009;DHT22;2523;51.058;6.922;2024-03-23T15:07:19;8.70;1.00
5009;DHT22;2523;51.058;6.922;2024-03-23T15:09:45;8.60;1.00
5009;DHT22;2523;51.058;6.922;2024-03-23T15:12:10;8.60;99.90
5009;DHT22;2523;51.058;6.922;2024-03-23T15:14:37;8.60;94.80
5009;DHT22;2523;51.058;6.922;2024-03-23T15:17:02;8.70;99.90
5009;DHT22;2523;51.058;6.922;2024-03-23T15:19:32;8.80;99.90
5009;DHT22;2523;51.058;6.922;2024-03-23T15:21:58;9.10;99.90
5009;DHT22;2523;51.058;6.922;2024-03-23T15:24:23;9.50;99.90
5009;DHT22;2523;51.058;6.922;2024-03-23T15:26:49;9.80;1.00
5009;DHT22;2523;51.058;6.922;2024-03-23T15:29:15;9.60;99.90
5009;DHT22;2523;51.058;6.922;2024-03-23T15:31:42;9.50;99.90
5009;DHT22;2523;51.058;6.922;2024-03-23T15:34:08;9.50;1.00
5009;DHT22;2523;51.058;6.922;2024-03-23T15:36:37;9.70;1.00
5009;DHT22;2523;51.058;6.922;2024-03-23T15:39:04;10.00;1.00
5009;DHT22;2523;51.058;6.922;2024-03-23T15:41:29;10.20;99.90
5009;DHT22;2523;51.058;6.922;2024-03-23T15:43:56;10.40;99.90
5009;DHT22;2523;51.058;6.922;2024-03-23T15:46:21;10.30;1.00
5009;DHT22;2523;51.058;6.922;2024-03-23T15:48:47;10.10;99.90
5009;DHT22;2523;51.058;6.922;2024-03-23T15:51:14;10.00;1.00
5009;DHT22;2523;51.058;6.922;2024-03-23T15:53:39;9.70;1.00
5009;DHT22;2523;51.058;6.922;2024-03-23T15:56:05;9.50;1.00
5009;DHT22;2523;51.058;6.922;2024-03-23T15:58:32;9.40;1.00
5009;DHT22;2523;51.058;6.922;2024-03-23T16:00:59;9.20;1.00
5009;DHT22;2523;51.058;6.922;2024-03-23T16:03:25;9.20;1.00
5009;DHT22;2523;51.058;6.922;2024-03-23T16:06:04;9.00;1.00
5009;DHT22;2523;51.058;6.922;2024-03-23T16:08:30;8.80;1.00
5009;DHT22;2523;51.058;6.922;2024-03-23T16:11:00;8.70;1.00
5009;DHT22;2523;51.058;6.922;2024-03-23T16:13:26;8.60;11.90
5009;DHT22;2523;51.058;6.922;2024-03-23T16:18:23;8.50;1.00
5009;DHT22;2523;51.058;6.922;2024-03-23T16:23:18;8.60;1.00
5009;DHT22;2523;51.058;6.922;2024-03-23T16:25:50;8.90;1.00
5009;DHT22;2523;51.058;6.922;2024-03-23T16:28:26;9.10;99.90
5009;DHT22;2523;51.058;6.922;2024-03-23T16:31:05;9.20;1.00
5009;DHT22;2523;51.058;6.922;2024-03-23T16:33:34;9.30;1.00
5009;DHT22;2523;51.058;6.922;2024-03-23T16:36:04;9.20;1.00
5009;DHT22;2523;51.058;6.922;2024-03-23T16:38:33;9.00;1.00
5009;DHT22;2523;51.058;6.922;2024-03-23T16:41:12;8.90;1.00
5009;DHT22;2523;51.058;6.922;2024-03-23T16:43:44;8.90;1.00
5009;DHT22;2523;51.058;6.922;2024-03-23T16:46:12;8.80;1.00
5009;DHT22;2523;51.058;6.922;2024-03-23T16:48:39;8.80;99.90
5009;DHT22;2523;51.058;6.922;2024-03-23T16:51:06;8.60;99.90
5009;DHT22;2523;51.058;6.922;2024-03-23T16:53:33;8.40;99.90
5009;DHT22;2523;51.058;6.922;2024-03-23T16:56:06;8.30;16.00
5009;DHT22;2523;51.058;6.922;2024-03-23T16:58:33;8.30;99.90
5009;DHT22;2523;51.058;6.922;2024-03-23T17:01:10;8.00;99.90
5009;DHT22;2523;51.058;6.922;2024-03-23T17:03:49;7.80;99.90
5009;DHT22;2523;51.058;6.922;2024-03-23T17:06:15;7.70;29.70
5009;DHT22;2523;51.058;6.922;2024-03-23T17:08:42;7.70;99.90
5009;DHT22;2523;51.058;6.922;2024-03-23T17:11:09;7.80;99.90
5009;DHT22;2523;51.058;6.922;2024-03-23T17:13:35;7.60;99.90
5009;DHT22;2523;51.058;6.922;2024-03-23T17:16:00;7.60;99.90
5009;DHT22;2523;51.058;6.922;2024-03-23T17:18:26;7.60;99.90
5009;DHT22;2523;51.058;6.922;2024-03-23T17:20:51;7.50;1.00
5009;DHT22;2523;51.058;6.922;2024-03-23T17:23:27;7.50;1.00
5009;DHT22;2523;51.058;6.922;2024-03-23T17:25:53;7.40;1.00
5009;DHT22;2523;51.058;6.922;2024-03-23T17:28:19;7.40;1.00
5009;DHT22;2523;51.058;6.922;2024-03-23T17:30:45;7.30;1.00